createdAt,value
2018-10-03T00:00:08.573Z,4.07
2018-10-03T00:02:37.221Z,3.93
2018-10-03T00:05:05.949Z,3.83
2018-10-03T00:07:34.671Z,4.27
2018-10-03T00:10:03.407Z,4.87
2018-10-03T00:12:32.085Z,4.80
2018-10-03T00:15:00.791Z,4.93
2018-10-03T00:17:29.483Z,4.53
2018-10-03T00:19:58.225Z,5.10
2018-10-03T00:22:26.897Z,5.27
2018-10-03T00:24:55.603Z,5.20
2018-10-03T00:27:24.271Z,4.77
2018-10-03T00:29:52.968Z,4.97
2018-10-03T00:32:21.632Z,4.97
2018-10-03T00:34:50.333Z,5.40
2018-10-03T00:37:18.993Z,5.13
2018-10-03T00:39:47.696Z,5.30
2018-10-03T00:42:16.413Z,5.37
2018-10-03T00:44:45.119Z,5.57
2018-10-03T00:47:13.826Z,5.00
2018-10-03T00:49:42.561Z,5.40
2018-10-03T00:52:11.210Z,5.77
2018-10-03T00:54:39.990Z,5.57
2018-10-03T00:57:08.618Z,5.30
2018-10-03T00:59:37.379Z,4.70
2018-10-03T01:02:06.273Z,5.90
2018-10-03T01:04:35.052Z,5.70
2018-10-03T01:07:03.741Z,5.97
2018-10-03T01:09:32.392Z,5.77
2018-10-03T01:12:01.097Z,6.03
2018-10-03T01:14:29.745Z,5.30
2018-10-03T01:16:58.392Z,5.17
2018-10-03T01:19:27.115Z,5.90
2018-10-03T01:21:55.838Z,5.57
2018-10-03T01:24:24.517Z,6.37
2018-10-03T01:26:53.167Z,6.20
2018-10-03T01:29:21.868Z,6.17
2018-10-03T01:31:50.517Z,6.20
2018-10-03T01:34:19.181Z,6.47
2018-10-03T01:36:47.898Z,6.57
2018-10-03T01:39:16.514Z,6.37
2018-10-03T01:41:45.282Z,6.37
2018-10-03T01:44:13.978Z,6.87
2018-10-03T01:46:42.642Z,6.30
2018-10-03T01:49:11.337Z,5.77
2018-10-03T01:51:40.102Z,5.80
2018-10-03T01:54:08.786Z,6.40
2018-10-03T01:56:37.491Z,5.83
2018-10-03T01:59:06.179Z,6.13
2018-10-03T02:01:34.920Z,6.83
2018-10-03T02:04:03.621Z,5.77
2018-10-03T02:06:32.270Z,5.70
2018-10-03T02:09:00.933Z,6.23
2018-10-03T02:11:29.653Z,5.70
2018-10-03T02:13:58.350Z,5.80
2018-10-03T02:16:27.014Z,5.73
2018-10-03T02:18:55.689Z,6.00
2018-10-03T02:21:24.388Z,5.67
2018-10-03T02:23:53.151Z,5.73
2018-10-03T02:26:21.870Z,5.93
2018-10-03T02:28:50.571Z,4.73
2018-10-03T02:31:19.317Z,4.80
2018-10-03T02:33:47.996Z,5.27
2018-10-03T02:36:16.687Z,5.27
2018-10-03T02:38:45.341Z,5.77
2018-10-03T02:41:14.074Z,5.50
2018-10-03T02:43:42.720Z,5.60
2018-10-03T02:46:11.416Z,5.60
2018-10-03T02:48:40.046Z,5.03
2018-10-03T02:51:08.785Z,5.03
2018-10-03T02:53:37.446Z,4.93
2018-10-03T02:56:06.143Z,5.40
2018-10-03T02:58:34.825Z,5.23
2018-10-03T03:01:03.485Z,5.40
2018-10-03T03:03:32.194Z,5.60
2018-10-03T03:06:00.876Z,5.30
2018-10-03T03:08:29.597Z,5.33
2018-10-03T03:10:58.304Z,5.30
2018-10-03T03:13:27.028Z,4.83
2018-10-03T03:15:55.725Z,5.03
2018-10-03T03:18:24.379Z,5.13
2018-10-03T03:20:53.089Z,4.93
2018-10-03T03:23:21.829Z,5.27
2018-10-03T03:25:50.497Z,5.80
2018-10-03T03:28:19.224Z,5.70
2018-10-03T03:30:47.967Z,5.90
2018-10-03T03:33:16.669Z,5.40
2018-10-03T03:35:45.370Z,5.60
2018-10-03T03:38:14.085Z,5.70
2018-10-03T03:40:42.793Z,4.97
2018-10-03T03:43:11.542Z,6.07
2018-10-03T03:45:40.237Z,6.30
2018-10-03T03:48:08.933Z,4.90
2018-10-03T03:50:37.629Z,5.13
2018-10-03T03:53:06.510Z,5.27
2018-10-03T03:55:35.222Z,5.50
2018-10-03T03:58:03.926Z,5.37
2018-10-03T04:00:32.612Z,5.17
2018-10-03T04:03:01.313Z,5.67
2018-10-03T04:05:29.974Z,5.60
2018-10-03T04:07:58.694Z,6.60
2018-10-03T04:10:27.372Z,5.73
2018-10-03T04:12:56.107Z,6.50
2018-10-03T04:15:24.841Z,5.37
2018-10-03T04:17:53.554Z,5.87
2018-10-03T04:20:22.490Z,5.87
2018-10-03T04:22:51.228Z,6.37
2018-10-03T04:25:26.544Z,6.87
2018-10-03T04:27:55.237Z,5.97
2018-10-03T04:30:23.947Z,5.90
2018-10-03T04:32:52.656Z,6.00
2018-10-03T04:35:21.352Z,6.53
2018-10-03T04:37:50.089Z,6.23
2018-10-03T04:40:18.845Z,6.90
2018-10-03T04:42:47.542Z,6.87
2018-10-03T04:45:16.273Z,5.93
2018-10-03T04:47:44.925Z,6.10
2018-10-03T04:50:13.615Z,6.40
2018-10-03T04:52:42.300Z,6.87
2018-10-03T04:55:11.014Z,6.77
2018-10-03T04:57:39.662Z,6.27
2018-10-03T05:00:08.414Z,6.03
2018-10-03T05:02:37.122Z,6.93
2018-10-03T05:05:05.804Z,5.73
2018-10-03T05:07:34.490Z,6.03
2018-10-03T05:10:03.188Z,5.80
2018-10-03T05:12:31.917Z,5.70
2018-10-03T05:15:00.568Z,6.03
2018-10-03T05:17:29.235Z,5.97
2018-10-03T05:19:57.993Z,6.43
2018-10-03T05:22:26.709Z,6.30
2018-10-03T05:24:55.562Z,6.13
2018-10-03T05:27:24.345Z,6.13
2018-10-03T05:29:53.026Z,6.83
2018-10-03T05:32:21.722Z,6.10
2018-10-03T05:34:53.374Z,7.03
2018-10-03T05:37:22.151Z,6.00
2018-10-03T05:39:50.808Z,6.97
2018-10-03T05:42:19.502Z,6.87
2018-10-03T05:44:48.203Z,6.97
2018-10-03T05:47:16.982Z,6.37
2018-10-03T05:49:45.757Z,6.83
2018-10-03T05:52:14.491Z,6.57
2018-10-03T05:54:43.211Z,6.43
2018-10-03T05:57:11.905Z,5.80
2018-10-03T05:59:40.605Z,6.90
2018-10-03T06:02:09.341Z,5.30
2018-10-03T06:04:38.040Z,5.50
2018-10-03T06:07:06.739Z,6.33
2018-10-03T06:09:35.429Z,5.87
2018-10-03T06:12:04.210Z,5.77
2018-10-03T06:14:32.892Z,5.53
2018-10-03T06:17:01.588Z,5.83
2018-10-03T06:19:30.289Z,6.37
2018-10-03T06:21:59.085Z,5.57
2018-10-03T06:24:27.745Z,5.27
2018-10-03T06:26:56.524Z,5.63
2018-10-03T06:29:25.177Z,5.50
2018-10-03T06:31:53.906Z,5.43
2018-10-03T06:34:22.603Z,6.00
2018-10-03T06:36:51.357Z,5.53
2018-10-03T06:39:20.073Z,5.20
2018-10-03T06:41:48.749Z,4.97
2018-10-03T06:44:17.470Z,4.73
2018-10-03T06:46:46.140Z,4.63
2018-10-03T06:49:14.788Z,5.37
2018-10-03T06:51:50.090Z,4.37
2018-10-03T06:54:18.745Z,4.90
2018-10-03T06:56:47.448Z,4.80
2018-10-03T06:59:16.152Z,4.20
2018-10-03T07:01:44.821Z,4.77
2018-10-03T07:04:13.983Z,5.43
2018-10-03T07:06:42.638Z,4.37
2018-10-03T07:09:11.341Z,5.00
2018-10-03T07:11:40.136Z,4.27
2018-10-03T07:14:08.852Z,4.40
2018-10-03T07:16:37.571Z,4.53
2018-10-03T07:19:06.326Z,4.73
2018-10-03T07:21:35.034Z,4.40
2018-10-03T07:24:03.743Z,4.43
2018-10-03T07:26:32.417Z,4.40
2018-10-03T07:29:07.775Z,4.33
2018-10-03T07:31:36.536Z,4.70
2018-10-03T07:34:05.219Z,4.10
2018-10-03T07:36:33.954Z,4.47
2018-10-03T07:39:02.707Z,4.67
2018-10-03T07:41:31.366Z,4.50
2018-10-03T07:44:00.129Z,3.87
2018-10-03T07:46:28.775Z,4.23
2018-10-03T07:48:57.519Z,4.20
2018-10-03T07:51:26.177Z,4.23
2018-10-03T07:53:54.865Z,4.80
2018-10-03T07:56:23.633Z,3.77
2018-10-03T07:58:52.363Z,4.50
2018-10-03T08:01:21.006Z,4.33
2018-10-03T08:03:49.657Z,4.30
2018-10-03T08:06:18.341Z,3.90
2018-10-03T08:08:47.037Z,4.40
2018-10-03T08:11:15.692Z,3.97
2018-10-03T08:13:44.329Z,4.27
2018-10-03T08:16:13.030Z,3.40
2018-10-03T08:18:41.746Z,4.20
2018-10-03T08:21:10.444Z,3.60
2018-10-03T08:23:39.148Z,3.77
2018-10-03T08:26:07.903Z,4.30
2018-10-03T08:28:36.574Z,3.77
2018-10-03T08:31:05.228Z,3.70
2018-10-03T08:33:33.959Z,4.00
2018-10-03T08:36:02.764Z,4.10
2018-10-03T08:38:31.447Z,3.80
2018-10-03T08:41:00.170Z,4.07
2018-10-03T08:43:28.853Z,3.63
2018-10-03T08:45:57.559Z,4.20
2018-10-03T08:48:26.209Z,4.27
2018-10-03T08:50:54.912Z,4.00
2018-10-03T08:53:23.922Z,3.67
2018-10-03T08:55:52.636Z,4.20
2018-10-03T08:58:21.340Z,3.40
2018-10-03T09:00:50.285Z,4.20
2018-10-03T09:03:18.994Z,3.60
2018-10-03T09:05:47.700Z,4.20
2018-10-03T09:08:17.364Z,3.90
2018-10-03T09:10:47.493Z,3.37
2018-10-03T09:13:16.155Z,3.37
2018-10-03T09:15:44.845Z,4.10
2018-10-03T09:18:13.574Z,4.20
2018-10-03T09:20:42.350Z,4.10
2018-10-03T09:23:11.081Z,3.53
2018-10-03T09:25:39.731Z,3.73
2018-10-03T09:28:08.537Z,3.90
2018-10-03T09:30:37.207Z,3.50
2018-10-03T09:33:05.928Z,3.93
2018-10-03T09:35:34.598Z,3.90
2018-10-03T09:38:03.281Z,3.77
2018-10-03T09:40:31.981Z,3.60
2018-10-03T09:43:00.692Z,3.97
2018-10-03T09:45:29.440Z,3.47
2018-10-03T09:47:58.111Z,4.27
2018-10-03T09:50:26.797Z,3.87
2018-10-03T09:52:55.497Z,3.40
2018-10-03T09:55:24.197Z,3.73
2018-10-03T09:57:52.943Z,3.90
2018-10-03T10:00:26.921Z,4.20
2018-10-03T10:02:55.573Z,4.40
2018-10-03T10:05:24.349Z,3.80
2018-10-03T10:07:53.084Z,3.80
2018-10-03T10:10:21.810Z,3.67
2018-10-03T10:12:50.517Z,3.77
2018-10-03T10:15:19.237Z,3.80
2018-10-03T10:17:47.916Z,4.10
2018-10-03T10:20:16.761Z,3.87
2018-10-03T10:22:46.085Z,3.80
2018-10-03T10:25:14.826Z,4.17
2018-10-03T10:27:43.502Z,3.33
2018-10-03T10:30:12.205Z,3.53
2018-10-03T10:32:40.932Z,3.90
2018-10-03T10:35:09.591Z,3.60
2018-10-03T10:37:38.521Z,3.57
2018-10-03T10:40:07.227Z,4.40
2018-10-03T10:42:35.867Z,3.53
2018-10-03T10:45:04.608Z,2.97
2018-10-03T10:47:33.305Z,3.80
2018-10-03T10:50:01.990Z,3.60
2018-10-03T10:52:30.686Z,3.23
2018-10-03T10:54:59.423Z,3.13
2018-10-03T10:57:28.134Z,2.73
2018-10-03T10:59:56.829Z,2.97
2018-10-03T11:02:25.552Z,3.43
2018-10-03T11:04:54.247Z,3.40
2018-10-03T11:07:22.894Z,2.67
2018-10-03T11:09:51.600Z,3.30
2018-10-03T11:12:20.253Z,3.30
2018-10-03T11:14:48.920Z,3.13
2018-10-03T11:17:17.610Z,2.60
2018-10-03T11:19:46.278Z,2.90
2018-10-03T11:22:14.981Z,3.57
2018-10-03T11:24:43.799Z,2.90
2018-10-03T11:27:12.382Z,2.90
2018-10-03T11:29:41.153Z,3.00
2018-10-03T11:32:09.880Z,3.00
2018-10-03T11:34:38.480Z,3.30
2018-10-03T11:37:07.272Z,3.30
2018-10-03T11:39:35.981Z,2.97
2018-10-03T11:42:04.654Z,2.77
2018-10-03T11:44:33.338Z,2.67
2018-10-03T11:47:02.109Z,2.70
2018-10-03T11:49:30.792Z,2.77
2018-10-03T11:51:59.522Z,3.10
2018-10-03T11:54:28.175Z,2.47
2018-10-03T11:56:56.920Z,2.50
2018-10-03T11:59:25.623Z,2.73
2018-10-03T12:01:54.371Z,3.30
2018-10-03T12:04:23.045Z,3.03
2018-10-03T12:06:51.750Z,2.57
2018-10-03T12:09:20.423Z,3.00
2018-10-03T12:11:49.102Z,2.63
2018-10-03T12:14:17.849Z,2.83
2018-10-03T12:16:46.530Z,3.03
